Time;durP1;ratioP1;P1;durP2;ratioP2;P2;SDS_P1;SDS_P2;PMS_P1;PMS_P2;Temp;Humidity;BMP_temperature;BMP_pressure;BME280_temperature;BME280_humidity;BME280_pressure;Samples;Min_cycle;Max_cycle;Signal;HPM_P1;HPM_P2
2021/11/25 00:02:29;;;;;;;12.00;3.45;;;;;;;;;;4932286;29;20082;-68
2021/11/25 00:05:00;;;;;;;12.15;3.92;;;;;;;;;;4883967;29;20049;-68
2021/11/25 00:07:31;;;;;;;16.27;4.63;;;;;;;;;;4875547;29;20068;-67
2021/11/25 00:10:01;;;;;;;15.45;4.57;;;;;;;;;;4893934;29;20490;-69
2021/11/25 00:12:32;;;;;;;16.02;4.57;;;;;;;;;;4865580;29;20054;-69
2021/11/25 00:15:03;;;;;;;10.05;4.32;;;;;;;;;;4829159;29;20924;-68
2021/11/25 00:17:34;;;;;;;18.30;4.47;;;;;;;;;;4871829;29;20058;-69
2021/11/25 00:20:07;;;;;;;12.55;4.57;;;;;;;;;;4857105;29;20057;-68
2021/11/25 00:22:39;;;;;;;10.27;4.63;;;;;;;;;;4872134;29;20084;-69
2021/11/25 00:25:11;;;;;;;13.10;3.90;;;;;;;;;;4856911;29;20076;-68
2021/11/25 00:27:42;;;;;;;12.35;4.05;;;;;;;;;;4856937;29;20533;-68
2021/11/25 00:30:13;;;;;;;12.40;3.90;;;;;;;;;;4856748;29;20068;-68
2021/11/25 00:32:45;;;;;;;14.73;4.15;;;;;;;;;;4856818;29;20060;-69
2021/11/25 00:35:15;;;;;;;;;;;;;;;;;;4888782;29;20059;-68
2021/11/25 00:37:46;;;;;;;15.10;4.00;;;;;;;;;;4903614;29;19923;-68
2021/11/25 00:40:19;;;;;;;16.02;4.32;;;;;;;;;;4912487;29;20524;-69
2021/11/25 00:42:50;;;;;;;15.75;4.90;;;;;;;;;;4904056;29;20076;-68
2021/11/25 00:45:22;;;;;;;12.77;4.57;;;;;;;;;;4897103;29;20060;-68
2021/11/25 00:47:53;;;;;;;18.13;4.80;;;;;;;;;;4931172;29;20063;-68
2021/11/25 00:50:23;;;;;;;12.57;4.72;;;;;;;;;;4884780;29;20055;-69
2021/11/25 00:52:54;;;;;;;15.98;4.43;;;;;;;;;;4946819;28;20047;-70
2021/11/25 00:55:25;;;;;;;12.30;4.55;;;;;;;;;;4901439;29;20512;-68
2021/11/25 00:57:55;;;;;;;12.77;4.45;;;;;;;;;;4912341;29;20048;-68
2021/11/25 01:00:26;;;;;;;13.80;4.72;;;;;;;;;;4912307;29;20060;-69
2021/11/25 01:02:56;;;;;;;15.85;5.00;;;;;;;;;;4880797;29;20063;-70
2021/11/25 01:05:27;;;;;;;17.48;4.93;;;;;;;;;;4911780;29;20056;-68
2021/11/25 01:07:58;;;;;;;16.52;5.38;;;;;;;;;;4855712;29;20061;-68
2021/11/25 01:10:29;;;;;;;18.60;4.75;;;;;;;;;;4836807;29;20050;-67
2021/11/25 01:13:00;;;;;;;12.07;4.90;;;;;;;;;;4828224;29;20535;-67
2021/11/25 01:15:34;;;;;;;14.10;5.38;;;;;;;;;;4819521;29;20058;-68
2021/11/25 01:18:08;;;;;;;12.93;5.03;;;;;;;;;;4819740;29;20420;-71
2021/11/25 01:20:41;;;;;;;16.23;5.13;;;;;;;;;;4855679;29;20080;-70
2021/11/25 01:23:17;;;;;;;13.80;5.28;;;;;;;;;;4855395;29;20418;-68
2021/11/25 01:25:48;;;;;;;19.73;4.97;;;;;;;;;;4855645;29;20056;-67
2021/11/25 01:28:20;;;;;;;13.63;4.50;;;;;;;;;;4871647;29;20065;-69
2021/11/25 01:30:54;;;;;;;11.20;5.10;;;;;;;;;;4882512;29;20084;-68
2021/11/25 01:33:28;;;;;;;12.20;5.38;;;;;;;;;;4931901;28;20051;-67
2021/11/25 01:36:01;;;;;;;14.02;5.53;;;;;;;;;;4942844;28;20439;-68
2021/11/25 01:38:32;;;;;;;11.93;4.97;;;;;;;;;;4949915;28;20058;-69
2021/11/25 01:41:02;;;;;;;17.35;5.30;;;;;;;;;;4950389;28;20058;-70
2021/11/25 01:43:38;;;;;;;16.83;5.30;;;;;;;;;;4890284;29;20072;-70
2021/11/25 01:46:21;;;;;;;15.95;5.20;;;;;;;;;;4906115;29;20692;-69
2021/11/25 01:48:52;;;;;;;12.98;5.03;;;;;;;;;;4941771;29;20087;-69
2021/11/25 01:51:24;;;;;;;9.38;4.57;;;;;;;;;;4933691;29;20055;-68
2021/11/25 01:53:56;;;;;;;12.65;4.80;;;;;;;;;;4880348;29;20486;-69
2021/11/25 01:56:26;;;;;;;12.13;4.55;;;;;;;;;;4911808;29;20055;-70
2021/11/25 01:59:00;;;;;;;14.02;5.30;;;;;;;;;;4897433;29;20056;-69
2021/11/25 02:01:34;;;;;;;14.95;5.63;;;;;;;;;;4877644;29;20402;-69
2021/11/25 02:04:09;;;;;;;11.95;4.80;;;;;;;;;;4911801;29;20052;-69
2021/11/25 02:06:42;;;;;;;14.85;5.00;;;;;;;;;;4911200;29;20056;-70
2021/11/25 02:09:12;;;;;;;;;;;;;;;;;;4930852;29;20069;-70
2021/11/25 02:11:42;;;;;;;10.40;4.63;;;;;;;;;;4907954;29;19934;-72
2021/11/25 02:14:13;;;;;;;11.02;5.07;;;;;;;;;;4911533;29;20505;-69
2021/11/25 02:16:45;;;;;;;15.82;5.30;;;;;;;;;;4915053;29;20545;-69
2021/11/25 02:19:17;;;;;;;17.70;5.40;;;;;;;;;;4893014;29;20056;-70
2021/11/25 02:21:47;;;;;;;14.65;4.95;;;;;;;;;;4891262;29;20060;-69
2021/11/25 02:24:18;;;;;;;11.32;4.97;;;;;;;;;;4914616;29;20064;-69
2021/11/25 02:26:49;;;;;;;12.88;5.22;;;;;;;;;;4938259;28;20067;-70
2021/11/25 02:29:19;;;;;;;12.88;5.65;;;;;;;;;;4953079;28;20113;-71
2021/11/25 02:31:50;;;;;;;14.38;5.72;;;;;;;;;;4960228;28;20099;-70
2021/11/25 02:34:21;;;;;;;13.15;5.57;;;;;;;;;;4941510;28;20052;-69
2021/11/25 02:36:52;;;;;;;12.85;5.60;;;;;;;;;;4914140;29;20056;-69
2021/11/25 02:39:23;;;;;;;14.48;5.78;;;;;;;;;;4911646;29;20067;-69
2021/11/25 02:41:53;;;;;;;14.25;5.38;;;;;;;;;;4839705;29;20050;-69
2021/11/25 02:44:24;;;;;;;13.32;5.28;;;;;;;;;;4867158;29;20050;-69
2021/11/25 02:47:00;;;;;;;15.18;5.07;;;;;;;;;;4876915;29;20391;-70
2021/11/25 02:49:30;;;;;;;17.40;4.93;;;;;;;;;;4844483;29;20074;-70
2021/11/25 02:52:00;;;;;;;15.77;5.93;;;;;;;;;;4826305;29;20063;-70
2021/11/25 02:54:31;;;;;;;15.70;6.30;;;;;;;;;;4803314;29;20062;-70
2021/11/25 02:57:02;;;;;;;13.95;5.43;;;;;;;;;;4829417;29;20059;-70
2021/11/25 02:59:33;;;;;;;18.48;5.72;;;;;;;;;;4821693;29;20065;-69
2021/11/25 03:02:03;;;;;;;15.52;5.70;;;;;;;;;;4831499;29;20057;-70
2021/11/25 03:04:35;;;;;;;19.77;5.63;;;;;;;;;;4849530;29;20057;-70
2021/11/25 03:07:06;;;;;;;17.13;5.65;;;;;;;;;;4827026;29;20068;-71
2021/11/25 03:09:39;;;;;;;14.55;6.43;;;;;;;;;;4827368;29;20060;-70
2021/11/25 03:12:09;;;;;;;16.40;6.38;;;;;;;;;;4858151;29;20061;-72
2021/11/25 03:14:40;;;;;;;14.40;5.55;;;;;;;;;;4837820;29;20058;-70
2021/11/25 03:17:11;;;;;;;16.42;5.75;;;;;;;;;;4821132;29;20484;-70
2021/11/25 03:19:41;;;;;;;14.70;5.45;;;;;;;;;;4868179;29;20056;-70
2021/11/25 03:22:12;;;;;;;16.25;5.95;;;;;;;;;;4886808;29;20500;-69
2021/11/25 03:24:42;;;;;;;16.92;6.53;;;;;;;;;;4905973;29;20060;-70
2021/11/25 03:27:13;;;;;;;13.73;6.00;;;;;;;;;;4932214;29;20070;-70
2021/11/25 03:29:43;;;;;;;19.23;7.38;;;;;;;;;;4933156;29;20048;-70
2021/11/25 03:32:13;;;;;;;22.35;7.13;;;;;;;;;;4962707;28;20066;-70
2021/11/25 03:34:44;;;;;;;19.80;7.25;;;;;;;;;;5011649;28;20206;-69
2021/11/25 03:37:15;;;;;;;22.10;7.18;;;;;;;;;;4981130;28;20050;-69
2021/11/25 03:39:45;;;;;;;13.23;6.13;;;;;;;;;;5029977;28;20073;-70
2021/11/25 03:42:16;;;;;;;16.27;6.88;;;;;;;;;;5030148;28;20053;-69
2021/11/25 03:44:46;;;;;;;20.65;7.57;;;;;;;;;;5009834;28;20050;-70
2021/11/25 03:47:17;;;;;;;20.33;8.30;;;;;;;;;;5009875;28;20061;-70
2021/11/25 03:49:47;;;;;;;14.95;7.60;;;;;;;;;;4990112;28;20058;-70
2021/11/25 03:52:18;;;;;;;13.13;7.35;;;;;;;;;;4990592;28;20470;-70
2021/11/25 03:54:48;;;;;;;14.52;6.93;;;;;;;;;;4990329;28;20065;-70
2021/11/25 03:57:19;;;;;;;16.85;6.90;;;;;;;;;;4951441;29;20055;-70
2021/11/25 03:59:50;;;;;;;16.80;6.95;;;;;;;;;;4951498;29;20056;-73
2021/11/25 04:02:21;;;;;;;16.25;6.55;;;;;;;;;;4951354;29;20063;-70
2021/11/25 04:04:52;;;;;;;13.90;6.13;;;;;;;;;;4936021;29;20066;-70
2021/11/25 04:07:23;;;;;;;11.57;5.80;;;;;;;;;;4951000;29;20159;-70
2021/11/25 04:09:53;;;;;;;14.00;5.80;;;;;;;;;;4951280;29;20504;-71
2021/11/25 04:12:24;;;;;;;17.58;6.70;;;;;;;;;;4951382;29;20058;-71
2021/11/25 04:14:55;;;;;;;14.30;8.00;;;;;;;;;;4935735;29;20063;-71
2021/11/25 04:17:25;;;;;;;17.20;7.82;;;;;;;;;;4935596;29;20063;-70
2021/11/25 04:19:56;;;;;;;20.35;7.32;;;;;;;;;;4961300;28;20063;-71
2021/11/25 04:22:26;;;;;;;23.83;8.65;;;;;;;;;;4986019;28;20055;-70
2021/11/25 04:24:57;;;;;;;17.10;8.13;;;;;;;;;;4970292;28;20085;-70
2021/11/25 04:27:28;;;;;;;22.15;7.53;;;;;;;;;;4960619;28;20058;-71
2021/11/25 04:35:36;;;;;;;16.67;7.28;;;;;;;;;;4946719;29;20059;-72
2021/11/25 04:38:13;;;;;;;17.00;7.55;;;;;;;;;;4965523;28;20078;-69
2021/11/25 04:40:54;;;;;;;13.38;6.60;;;;;;;;;;4970364;28;20070;-70
2021/11/25 04:43:26;;;;;;;13.90;6.05;;;;;;;;;;4954343;28;20039;-70
2021/11/25 04:45:57;;;;;;;13.55;6.38;;;;;;;;;;4912319;29;20048;-71
2021/11/25 04:48:28;;;;;;;18.27;7.15;;;;;;;;;;4893441;29;20777;-70
2021/11/25 04:50:59;;;;;;;15.60;6.85;;;;;;;;;;4877575;29;20049;-73
2021/11/25 04:53:30;;;;;;;14.70;6.60;;;;;;;;;;4893766;29;20052;-70
2021/11/25 04:56:01;;;;;;;19.80;6.20;;;;;;;;;;4893451;29;20056;-80
2021/11/25 04:58:32;;;;;;;16.92;6.60;;;;;;;;;;4893497;29;20056;-72
2021/11/25 05:01:03;;;;;;;15.38;6.82;;;;;;;;;;4910342;29;20059;-71
2021/11/25 05:03:34;;;;;;;17.10;6.82;;;;;;;;;;4881050;29;20394;-70
2021/11/25 05:06:08;;;;;;;22.00;7.20;;;;;;;;;;4861608;29;20045;-71
2021/11/25 05:08:39;;;;;;;16.95;6.97;;;;;;;;;;4910868;29;20064;-71
2021/11/25 05:11:09;;;;;;;15.52;6.88;;;;;;;;;;4927699;29;20070;-71
2021/11/25 05:13:41;;;;;;;14.57;6.82;;;;;;;;;;4931469;29;20420;-70
2021/11/25 05:16:11;;;;;;;15.95;7.00;;;;;;;;;;4931100;29;20052;-71
2021/11/25 05:18:41;;;;;;;15.63;7.28;;;;;;;;;;4931541;29;20067;-71
2021/11/25 05:21:15;;;;;;;13.77;6.55;;;;;;;;;;4931285;29;20052;-72
2021/11/25 05:23:46;;;;;;;17.52;7.18;;;;;;;;;;4941592;29;20059;-71
2021/11/25 05:26:16;;;;;;;15.30;6.60;;;;;;;;;;4960552;28;20054;-71
2021/11/25 05:28:46;;;;;;;17.50;6.65;;;;;;;;;;4959056;28;20067;-73
2021/11/25 05:31:17;;;;;;;12.15;6.50;;;;;;;;;;4911903;29;20056;-73
2021/11/25 05:33:47;;;;;;;12.23;6.22;;;;;;;;;;4889517;29;20061;-70
2021/11/25 05:36:17;;;;;;;13.98;5.97;;;;;;;;;;4874516;29;20087;-72
2021/11/25 05:38:47;;;;;;;13.70;6.05;;;;;;;;;;4855535;29;20065;-71
2021/11/25 05:41:18;;;;;;;17.75;6.38;;;;;;;;;;4825436;29;20061;-71
2021/11/25 05:43:49;;;;;;;21.08;7.22;;;;;;;;;;4837114;29;20058;-72
2021/11/25 05:46:20;;;;;;;19.63;8.63;;;;;;;;;;4855880;29;20053;-70
2021/11/25 05:48:50;;;;;;;17.27;9.25;;;;;;;;;;4852082;29;20411;-71
2021/11/25 05:51:20;;;;;;;24.27;10.00;;;;;;;;;;4826044;29;20061;-72
2021/11/25 05:53:50;;;;;;;19.05;9.57;;;;;;;;;;4854530;29;20050;-71
2021/11/25 05:56:21;;;;;;;22.48;8.77;;;;;;;;;;4822467;29;20424;-72
2021/11/25 05:58:52;;;;;;;16.83;7.47;;;;;;;;;;4822243;29;20058;-71
2021/11/25 06:01:24;;;;;;;15.82;6.80;;;;;;;;;;4822594;29;20074;-71
2021/11/25 06:03:58;;;;;;;17.60;6.55;;;;;;;;;;4850806;29;20057;-71
2021/11/25 06:06:28;;;;;;;11.18;5.95;;;;;;;;;;4912075;29;21198;-71
2021/11/25 06:08:59;;;;;;;13.60;6.20;;;;;;;;;;4886933;29;20052;-71
2021/11/25 06:11:29;;;;;;;14.63;6.35;;;;;;;;;;4896609;29;20108;-71
2021/11/25 06:13:59;;;;;;;14.52;6.05;;;;;;;;;;4914990;29;20052;-71
2021/11/25 06:16:29;;;;;;;13.73;5.85;;;;;;;;;;4874281;29;20536;-71
2021/11/25 06:19:00;;;;;;;14.68;6.13;;;;;;;;;;4896161;29;20064;-71
2021/11/25 06:21:30;;;;;;;11.15;6.05;;;;;;;;;;4880938;29;20067;-74
2021/11/25 06:24:01;;;;;;;13.20;6.25;;;;;;;;;;4915189;29;20447;-71
2021/11/25 06:26:32;;;;;;;14.93;6.60;;;;;;;;;;4895798;29;20053;-72
2021/11/25 06:29:02;;;;;;;11.88;6.38;;;;;;;;;;4895866;29;20436;-71
2021/11/25 06:31:33;;;;;;;12.98;5.45;;;;;;;;;;4925258;29;20055;-71
2021/11/25 06:34:04;;;;;;;11.00;5.80;;;;;;;;;;4952730;29;20194;-71
2021/11/25 06:36:34;;;;;;;11.35;5.70;;;;;;;;;;4953117;29;20506;-71
2021/11/25 06:39:06;;;;;;;11.32;5.43;;;;;;;;;;4971970;28;20162;-72
2021/11/25 06:41:37;;;;;;;14.50;5.90;;;;;;;;;;4956664;28;20074;-71
2021/11/25 06:44:07;;;;;;;13.80;6.85;;;;;;;;;;4938340;28;20398;-71
2021/11/25 06:46:38;;;;;;;13.25;6.57;;;;;;;;;;4923890;29;20512;-71
2021/11/25 06:49:09;;;;;;;16.20;7.53;;;;;;;;;;4914917;29;20060;-71
2021/11/25 06:51:41;;;;;;;12.52;6.85;;;;;;;;;;4910993;29;20048;-71
2021/11/25 06:54:12;;;;;;;11.52;6.18;;;;;;;;;;4895670;29;20071;-70
2021/11/25 06:56:43;;;;;;;11.93;6.13;;;;;;;;;;4888599;29;20051;-71
2021/11/25 06:59:15;;;;;;;14.57;5.75;;;;;;;;;;4933055;28;20556;-71
2021/11/25 07:01:45;;;;;;;13.43;5.90;;;;;;;;;;4933022;29;20556;-72
2021/11/25 07:04:17;;;;;;;9.98;5.38;;;;;;;;;;4943079;28;20043;-71
2021/11/25 07:06:47;;;;;;;9.77;5.53;;;;;;;;;;4952103;28;20191;-71
2021/11/25 07:09:18;;;;;;;8.55;5.63;;;;;;;;;;4894819;29;20053;-71
2021/11/25 07:11:49;;;;;;;12.52;6.05;;;;;;;;;;4875483;29;20080;-76
2021/11/25 07:14:19;;;;;;;12.95;5.55;;;;;;;;;;4857982;29;20469;-71
2021/11/25 07:16:50;;;;;;;14.05;6.30;;;;;;;;;;4856848;29;20178;-71
2021/11/25 07:19:30;;;;;;;11.43;6.05;;;;;;;;;;4839457;29;20058;-71
2021/11/25 07:22:06;;;;;;;17.98;6.28;;;;;;;;;;4898776;29;20060;-73
2021/11/25 07:24:37;;;;;;;11.65;6.38;;;;;;;;;;4913702;29;20060;-71
2021/11/25 07:27:08;;;;;;;11.65;6.28;;;;;;;;;;4898883;29;20064;-71
2021/11/25 07:29:39;;;;;;;13.50;5.88;;;;;;;;;;4913633;29;20048;-71
2021/11/25 07:32:09;;;;;;;11.73;6.43;;;;;;;;;;4932473;29;20067;-72
2021/11/25 07:34:40;;;;;;;13.75;6.30;;;;;;;;;;4939589;29;20522;-73
2021/11/25 07:37:13;;;;;;;18.52;6.63;;;;;;;;;;4928545;29;20501;-73
2021/11/25 07:39:43;;;;;;;17.25;7.72;;;;;;;;;;4881954;29;20382;-72
2021/11/25 07:42:13;;;;;;;11.57;6.97;;;;;;;;;;4913610;29;20082;-75
2021/11/25 07:44:44;;;;;;;15.88;6.80;;;;;;;;;;4901899;29;20060;-72
2021/11/25 07:47:16;;;;;;;12.02;6.18;;;;;;;;;;4901450;29;20711;-71
2021/11/25 07:49:47;;;;;;;13.07;5.30;;;;;;;;;;4913235;29;20056;-72
2021/11/25 07:52:17;;;;;;;13.82;5.63;;;;;;;;;;4913205;29;20045;-71
2021/11/25 07:54:48;;;;;;;10.93;4.97;;;;;;;;;;4913517;29;20064;-72
2021/11/25 07:57:18;;;;;;;10.98;5.40;;;;;;;;;;4881786;29;20441;-73
2021/11/25 07:59:48;;;;;;;11.23;5.00;;;;;;;;;;4902394;29;20056;-75
2021/11/25 08:02:20;;;;;;;13.05;5.78;;;;;;;;;;4894851;29;20048;-74
2021/11/25 08:04:52;;;;;;;16.65;6.03;;;;;;;;;;4897418;29;20060;-73
2021/11/25 08:07:23;;;;;;;17.00;5.90;;;;;;;;;;4897662;29;20052;-72
2021/11/25 08:09:53;;;;;;;12.20;5.55;;;;;;;;;;4899657;29;20060;-72
2021/11/25 08:12:28;;;;;;;14.13;5.80;;;;;;;;;;4893418;29;20063;-72
2021/11/25 08:14:58;;;;;;;14.15;5.65;;;;;;;;;;4893998;29;20170;-72
2021/11/25 08:17:28;;;;;;;13.05;6.22;;;;;;;;;;4914079;29;20522;-72
2021/11/25 08:19:59;;;;;;;11.68;6.22;;;;;;;;;;4893891;29;20456;-73
2021/11/25 08:22:29;;;;;;;14.95;6.97;;;;;;;;;;4859172;29;20056;-72
2021/11/25 08:25:02;;;;;;;16.13;6.90;;;;;;;;;;4865504;29;20057;-72
2021/11/25 08:27:33;;;;;;;17.52;6.80;;;;;;;;;;4867033;29;20057;-72
2021/11/25 08:30:05;;;;;;;14.05;6.35;;;;;;;;;;4887140;29;20529;-72
2021/11/25 08:32:36;;;;;;;15.45;7.15;;;;;;;;;;4856830;29;20064;-72
2021/11/25 08:35:07;;;;;;;14.85;7.45;;;;;;;;;;4874803;29;20057;-72
2021/11/25 08:37:39;;;;;;;20.45;8.30;;;;;;;;;;4849891;29;20061;-72
2021/11/25 08:40:13;;;;;;;16.73;7.70;;;;;;;;;;4856608;29;20061;-72
2021/11/25 08:42:46;;;;;;;15.20;7.20;;;;;;;;;;4856777;29;20054;-72
2021/11/25 08:45:20;;;;;;;20.55;8.23;;;;;;;;;;4856331;29;20549;-72
2021/11/25 08:47:51;;;;;;;11.75;6.75;;;;;;;;;;4867883;29;20064;-71
2021/11/25 08:50:21;;;;;;;10.52;5.85;;;;;;;;;;4889400;29;20068;-72
2021/11/25 08:52:51;;;;;;;16.55;7.13;;;;;;;;;;4892338;29;20083;-71
2021/11/25 08:55:21;;;;;;;15.38;7.35;;;;;;;;;;4931356;29;20056;-72
2021/11/25 08:57:52;;;;;;;17.30;7.72;;;;;;;;;;4935473;28;20419;-72
2021/11/25 09:00:23;;;;;;;13.93;7.28;;;;;;;;;;4950950;29;20154;-72
2021/11/25 09:02:57;;;;;;;13.73;6.82;;;;;;;;;;4935646;29;20074;-72
2021/11/25 09:05:30;;;;;;;12.27;5.93;;;;;;;;;;4935037;29;21070;-72
2021/11/25 09:08:02;;;;;;;12.05;5.43;;;;;;;;;;4993689;28;20425;-72
2021/11/25 09:10:33;;;;;;;15.60;6.30;;;;;;;;;;5009373;28;20548;-72
2021/11/25 09:13:06;;;;;;;23.48;9.80;;;;;;;;;;4969470;28;20554;-72
2021/11/25 09:15:39;;;;;;;19.13;8.65;;;;;;;;;;4953859;28;20058;-72
2021/11/25 09:18:11;;;;;;;16.48;7.30;;;;;;;;;;4950156;28;20055;-72
2021/11/25 09:20:43;;;;;;;15.82;7.95;;;;;;;;;;4950445;28;20060;-72
2021/11/25 09:23:20;;;;;;;16.27;6.60;;;;;;;;;;4949589;28;20058;-71
2021/11/25 09:25:52;;;;;;;10.18;5.68;;;;;;;;;;4973907;28;20523;-72
2021/11/25 09:28:27;;;;;;;13.23;6.35;;;;;;;;;;4978223;28;20050;-72
2021/11/25 09:30:57;;;;;;;12.15;5.47;;;;;;;;;;4993057;28;20054;-71
2021/11/25 09:33:28;;;;;;;13.23;6.22;;;;;;;;;;4992812;28;20050;-71
2021/11/25 09:35:58;;;;;;;14.00;6.20;;;;;;;;;;4972631;28;20039;-71
2021/11/25 09:38:29;;;;;;;13.18;6.07;;;;;;;;;;4992479;28;20057;-71
2021/11/25 09:41:01;;;;;;;14.85;6.28;;;;;;;;;;4992778;28;20098;-73
2021/11/25 09:43:32;;;;;;;16.02;6.50;;;;;;;;;;4953971;29;20051;-71
2021/11/25 09:46:03;;;;;;;10.85;6.75;;;;;;;;;;4953689;29;20059;-70
2021/11/25 09:48:35;;;;;;;16.30;8.80;;;;;;;;;;4992455;28;20066;-71
2021/11/25 09:51:07;;;;;;;18.27;8.45;;;;;;;;;;5017775;28;20565;-71
2021/11/25 09:53:38;;;;;;;17.77;9.18;;;;;;;;;;4992482;28;20046;-70
2021/11/25 09:56:09;;;;;;;20.55;9.82;;;;;;;;;;4966882;28;20059;-70
2021/11/25 09:58:40;;;;;;;24.45;10.40;;;;;;;;;;4953951;28;20423;-70
2021/11/25 10:01:14;;;;;;;22.80;10.43;;;;;;;;;;4934376;29;20047;-70
2021/11/25 10:03:52;;;;;;;21.95;9.90;;;;;;;;;;4934565;29;20074;-70
2021/11/25 10:06:32;;;;;;;16.60;8.43;;;;;;;;;;4931053;29;20060;-70
2021/11/25 10:09:04;;;;;;;17.30;7.20;;;;;;;;;;4915551;29;20056;-71
2021/11/25 10:11:39;;;;;;;15.63;7.88;;;;;;;;;;4947240;28;20129;-70
2021/11/25 10:14:15;;;;;;;21.17;7.13;;;;;;;;;;4953382;28;20451;-69
2021/11/25 10:16:54;;;;;;;14.23;6.78;;;;;;;;;;4953343;28;20059;-71
2021/11/25 10:19:27;;;;;;;14.18;6.57;;;;;;;;;;4886815;29;20416;-74
2021/11/25 10:22:07;;;;;;;15.27;5.93;;;;;;;;;;4949789;28;20047;-69
2021/11/25 10:24:45;;;;;;;15.45;6.63;;;;;;;;;;4953060;28;20055;-70
2021/11/25 10:27:23;;;;;;;16.27;6.03;;;;;;;;;;4921384;28;20515;-71
2021/11/25 10:30:18;;;;;;;14.90;6.72;;;;;;;;;;4953215;29;20063;-69
2021/11/25 10:33:00;;;;;;;15.55;6.57;;;;;;;;;;4953299;29;20531;-70
2021/11/25 10:35:47;;;;;;;20.05;7.22;;;;;;;;;;4952691;28;20102;-69
2021/11/25 10:40:48;;;;;;;39.25;17.40;;;;;;;;;;4992110;28;20610;-70
2021/11/25 10:43:21;;;;;;;51.38;21.30;;;;;;;;;;4943352;28;20415;-68
2021/11/25 10:45:54;;;;;;;30.20;11.32;;;;;;;;;;4971862;28;20051;-67
2021/11/25 10:48:36;;;;;;;24.98;11.32;;;;;;;;;;4968202;28;20675;-66
2021/11/25 10:51:32;;;;;;;26.27;12.32;;;;;;;;;;4959163;28;20051;-70
2021/11/25 10:54:13;;;;;;;27.27;10.02;;;;;;;;;;4972030;28;20054;-68
2021/11/25 10:56:50;;;;;;;16.10;7.00;;;;;;;;;;4978613;28;20042;-66
2021/11/25 10:59:34;;;;;;;14.90;5.53;;;;;;;;;;4991647;28;20058;-68
2021/11/25 11:02:37;;;;;;;12.18;5.00;;;;;;;;;;4991276;28;20057;-65
2021/11/25 11:05:11;;;;;;;14.27;4.40;;;;;;;;;;5010471;28;20050;-66
2021/11/25 11:07:46;;;;;;;11.20;4.75;;;;;;;;;;4997348;28;20060;-67
2021/11/25 11:10:24;;;;;;;17.92;5.07;;;;;;;;;;5030506;28;20061;-66
2021/11/25 11:18:45;;;;;;;12.23;4.35;;;;;;;;;;4951976;29;20455;-66
2021/11/25 11:21:44;;;;;;;12.25;3.53;;;;;;;;;;4936541;29;20464;-66
2021/11/25 11:24:18;;;;;;;9.65;3.70;;;;;;;;;;4936563;29;20063;-69
2021/11/25 11:26:50;;;;;;;9.77;3.50;;;;;;;;;;4920966;29;20052;-68
2021/11/25 11:29:29;;;;;;;8.05;3.45;;;;;;;;;;4914402;29;20055;-69
2021/11/25 11:32:04;;;;;;;11.93;3.65;;;;;;;;;;4902420;29;20406;-66
2021/11/25 11:34:35;;;;;;;10.68;3.47;;;;;;;;;;4910688;29;20056;-68
2021/11/25 11:37:05;;;;;;;9.73;3.53;;;;;;;;;;4895054;29;20067;-67
2021/11/25 11:39:38;;;;;;;11.52;3.78;;;;;;;;;;4896927;29;20498;-66
2021/11/25 11:42:11;;;;;;;8.55;3.33;;;;;;;;;;4876431;29;20057;-67
2021/11/25 11:44:45;;;;;;;9.00;3.05;;;;;;;;;;4903500;29;20051;-69
2021/11/25 11:47:15;;;;;;;11.02;3.00;;;;;;;;;;4931836;29;20086;-64
2021/11/25 11:49:48;;;;;;;7.95;2.80;;;;;;;;;;4900745;29;20056;-65
2021/11/25 11:52:23;;;;;;;10.50;2.88;;;;;;;;;;4935207;29;20055;-66
2021/11/25 11:54:58;;;;;;;9.75;2.42;;;;;;;;;;4955883;28;20054;-66
2021/11/25 11:57:32;;;;;;;9.65;2.65;;;;;;;;;;4951297;28;20043;-66
2021/11/25 12:00:26;;;;;;;6.60;2.25;;;;;;;;;;4970091;28;20055;-64
2021/11/25 12:02:58;;;;;;;8.07;2.50;;;;;;;;;;4970753;28;20391;-67
2021/11/25 12:05:46;;;;;;;10.80;2.63;;;;;;;;;;4971168;28;20063;-65
2021/11/25 12:08:28;;;;;;;9.77;2.47;;;;;;;;;;4950839;28;20515;-65
2021/11/25 12:11:05;;;;;;;7.85;2.60;;;;;;;;;;4951189;28;20062;-65
2021/11/25 12:13:40;;;;;;;10.93;2.65;;;;;;;;;;4951099;28;20055;-65
2021/11/25 12:16:38;;;;;;;6.72;2.75;;;;;;;;;;4934073;28;20059;-66
2021/11/25 12:19:10;;;;;;;7.65;2.53;;;;;;;;;;4932043;29;20079;-64
2021/11/25 12:21:44;;;;;;;10.32;2.97;;;;;;;;;;4924132;29;20060;-62
2021/11/25 12:24:22;;;;;;;8.88;2.63;;;;;;;;;;4894157;29;20462;-66
2021/11/25 12:27:14;;;;;;;8.00;3.33;;;;;;;;;;4888812;29;20517;-65
2021/11/25 12:29:49;;;;;;;8.23;2.08;;;;;;;;;;4875085;29;20056;-66
2021/11/25 12:35:44;;;;;;;10.60;2.00;;;;;;;;;;4931166;29;20055;-66
2021/11/25 12:38:18;;;;;;;9.98;2.20;;;;;;;;;;4923207;29;20060;-66
2021/11/25 12:40:58;;;;;;;12.23;2.17;;;;;;;;;;4897070;29;20060;-62
2021/11/25 12:43:31;;;;;;;5.40;2.03;;;;;;;;;;4913016;29;20056;-65
2021/11/25 12:46:17;;;;;;;6.03;1.65;;;;;;;;;;4902810;29;20068;-62
2021/11/25 12:48:51;;;;;;;7.45;2.13;;;;;;;;;;4912344;29;20052;-66
2021/11/25 12:51:29;;;;;;;8.65;2.03;;;;;;;;;;4902166;29;20501;-66
2021/11/25 12:54:00;;;;;;;;;;;;;;;;;;4879071;29;20413;-61
2021/11/25 12:56:38;;;;;;;8.32;1.73;;;;;;;;;;4882296;29;19947;-64
2021/11/25 12:59:15;;;;;;;7.00;2.10;;;;;;;;;;4874571;29;20064;-69
2021/11/25 13:01:48;;;;;;;10.32;1.77;;;;;;;;;;4875122;29;20057;-63
2021/11/25 13:04:24;;;;;;;10.40;1.95;;;;;;;;;;4927386;29;20497;-62
2021/11/25 13:06:58;;;;;;;8.55;1.90;;;;;;;;;;4950476;29;20059;-66
2021/11/25 13:09:33;;;;;;;10.15;1.95;;;;;;;;;;4955802;28;20468;-64
2021/11/25 13:12:06;;;;;;;7.30;1.92;;;;;;;;;;5001148;28;20080;-61
2021/11/25 13:14:37;;;;;;;9.45;2.10;;;;;;;;;;5008655;28;20061;-62
2021/11/25 13:17:09;;;;;;;7.88;2.08;;;;;;;;;;5009098;28;20457;-65
2021/11/25 13:19:41;;;;;;;7.68;1.88;;;;;;;;;;5008826;28;20062;-65
2021/11/25 13:22:14;;;;;;;8.27;1.90;;;;;;;;;;5008846;28;20057;-63
2021/11/25 13:24:51;;;;;;;9.95;1.98;;;;;;;;;;4969447;28;20054;-63
2021/11/25 13:27:24;;;;;;;9.27;1.90;;;;;;;;;;4950078;28;20463;-63
2021/11/25 13:30:03;;;;;;;12.40;2.03;;;;;;;;;;4950240;28;20070;-63
2021/11/25 13:32:39;;;;;;;6.82;2.17;;;;;;;;;;4934658;28;20064;-64
2021/11/25 13:35:14;;;;;;;6.53;2.30;;;;;;;;;;4950839;28;20051;-65
2021/11/25 13:37:50;;;;;;;12.55;1.98;;;;;;;;;;4969421;28;20051;-67
2021/11/25 13:40:22;;;;;;;7.10;2.00;;;;;;;;;;4950233;28;20059;-63
2021/11/25 13:42:53;;;;;;;;;;;;;;;;;;4934094;28;20056;-64
2021/11/25 13:45:31;;;;;;;;;;;;;;;;;;4893670;29;19924;-64
2021/11/25 13:48:02;;;;;;;10.15;1.92;;;;;;;;;;4862448;29;20391;-64
2021/11/25 13:50:37;;;;;;;7.95;3.05;;;;;;;;;;4909202;29;20071;-66
2021/11/25 13:53:09;;;;;;;6.82;2.22;;;;;;;;;;4893003;29;20134;-63
2021/11/25 13:55:40;;;;;;;10.27;2.25;;;;;;;;;;4892982;29;20052;-65
2021/11/25 13:58:10;;;;;;;6.05;1.65;;;;;;;;;;4893069;29;20056;-64
2021/11/25 14:00:42;;;;;;;8.15;2.25;;;;;;;;;;4892995;29;20452;-65
2021/11/25 14:03:15;;;;;;;6.18;2.22;;;;;;;;;;4908591;29;20056;-63
2021/11/25 14:05:54;;;;;;;9.13;2.03;;;;;;;;;;4927145;29;20493;-62
2021/11/25 14:08:30;;;;;;;8.60;1.90;;;;;;;;;;4843137;29;20049;-62
2021/11/25 14:11:15;;;;;;;6.38;2.00;;;;;;;;;;4894801;29;20057;-62
2021/11/25 14:13:46;;;;;;;10.25;1.90;;;;;;;;;;4896521;29;20414;-63
2021/11/25 14:16:19;;;;;;;7.13;1.67;;;;;;;;;;4896529;29;20060;-62
2021/11/25 14:18:54;;;;;;;8.60;1.90;;;;;;;;;;4912057;29;20468;-64
2021/11/25 14:21:44;;;;;;;4.93;1.67;;;;;;;;;;4899583;29;20056;-66
2021/11/25 14:24:19;;;;;;;9.77;2.00;;;;;;;;;;4934012;29;20416;-69
2021/11/25 14:30:16;;;;;;;8.73;2.60;;;;;;;;;;4918723;29;20086;-64
2021/11/25 14:32:59;;;;;;;6.95;1.77;;;;;;;;;;4928926;29;20052;-66
2021/11/25 14:35:38;;;;;;;10.10;2.22;;;;;;;;;;4914983;29;20071;-61
2021/11/25 14:38:19;;;;;;;8.02;2.03;;;;;;;;;;4923100;28;20055;-62
2021/11/25 14:40:58;;;;;;;9.15;1.85;;;;;;;;;;4924602;28;20054;-63
2021/11/25 14:43:29;;;;;;;6.22;1.92;;;;;;;;;;4972289;28;20051;-63
2021/11/25 14:45:59;;;;;;;5.35;1.90;;;;;;;;;;4972375;28;20050;-65
2021/11/25 14:48:33;;;;;;;8.73;2.35;;;;;;;;;;4985054;28;20057;-65
2021/11/25 14:51:09;;;;;;;8.23;2.00;;;;;;;;;;4991291;28;20054;-64
2021/11/25 14:53:53;;;;;;;9.98;2.40;;;;;;;;;;4975524;28;20062;-60
2021/11/25 14:56:32;;;;;;;9.07;2.08;;;;;;;;;;4966388;28;20058;-68
2021/11/25 14:59:06;;;;;;;10.63;2.05;;;;;;;;;;4967894;28;20059;-64
2021/11/25 15:01:44;;;;;;;9.75;2.05;;;;;;;;;;4936698;29;20060;-65
2021/11/25 15:04:19;;;;;;;16.33;2.10;;;;;;;;;;4920764;29;20055;-66
2021/11/25 15:07:01;;;;;;;7.63;1.90;;;;;;;;;;4960761;28;20076;-63
2021/11/25 15:09:31;;;;;;;10.93;2.47;;;;;;;;;;4972018;28;20063;-61
2021/11/25 15:12:01;;;;;;;6.78;2.08;;;;;;;;;;4933435;28;20057;-61
2021/11/25 15:14:37;;;;;;;6.45;1.92;;;;;;;;;;4958715;28;20056;-65
2021/11/25 15:17:08;;;;;;;8.60;2.10;;;;;;;;;;4991607;28;20111;-63
2021/11/25 15:19:39;;;;;;;12.40;2.42;;;;;;;;;;4991143;28;20058;-64
2021/11/25 15:22:09;;;;;;;9.82;1.98;;;;;;;;;;4951736;28;20082;-64
2021/11/25 15:24:40;;;;;;;5.30;2.17;;;;;;;;;;4951955;29;20065;-64
2021/11/25 15:27:11;;;;;;;8.00;2.33;;;;;;;;;;4969619;28;20051;-71
2021/11/25 15:29:57;;;;;;;8.02;2.20;;;;;;;;;;5010227;28;20061;-63